Time;durP1;ratioP1;P1;durP2;ratioP2;P2;SDS_P1;SDS_P2;PMS_P1;PMS_P2;Temp;Humidity;BMP_temperature;BMP_pressure;BME280_temperature;BME280_humidity;BME280_pressure;Samples;Min_cycle;Max_cycle;Signal;HPM_P1;HPM_P2
2023/11/15 00:01:32;;;;;;;;;;;;;;;10.37;68.82;99225.47;5074531;28;20441;-77
2023/11/15 00:03:57;;;;;;;;;;;;;;;10.36;68.50;99229.13;5074286;28;19930;-77
2023/11/15 00:06:22;;;;;;;;;;;;;;;10.35;68.21;99215.09;5073216;28;20397;-75
2023/11/15 00:08:48;;;;;;;;;;;;;;;10.38;68.21;99206.81;5074367;28;19919;-77
2023/11/15 00:11:15;;;;;;;;;;;;;;;10.43;67.97;99211.56;5074359;28;19970;-77
2023/11/15 00:13:40;;;;;;;;;;;;;;;10.46;67.54;99195.38;5074285;28;19919;-77
2023/11/15 00:16:06;;;;;;;;;;;;;;;10.46;67.84;99204.09;5074190;28;20011;-77
2023/11/15 00:18:32;;;;;;;;;;;;;;;10.44;67.59;99215.84;5073162;28;20016;-76
2023/11/15 00:20:57;;;;;;;;;;;;;;;10.43;67.53;99227.41;5074643;28;19952;-76
2023/11/15 00:23:23;;;;;;;;;;;;;;;10.40;67.95;99227.75;5074149;28;19919;-76
2023/11/15 00:25:49;;;;;;;;;;;;;;;10.40;67.33;99222.47;5072830;28;19999;-76
2023/11/15 00:28:14;;;;;;;;;;;;;;;10.34;67.50;99224.03;5074199;28;19963;-77
2023/11/15 00:30:40;;;;;;;;;;;;;;;10.32;67.02;99230.50;5074152;28;20386;-77
2023/11/15 00:33:05;;;;;;;;;;;;;;;10.28;67.08;99210.75;5074156;28;19912;-77
2023/11/15 00:35:30;;;;;;;;;;;;;;;10.24;67.40;99194.47;5074093;28;19913;-76
2023/11/15 00:37:55;;;;;;;;;;;;;;;10.23;66.95;99169.09;5074185;28;20066;-76
2023/11/15 00:40:21;;;;;;;;;;;;;;;10.22;66.98;99150.81;5074079;28;19917;-76
2023/11/15 00:42:48;;;;;;;;;;;;;;;10.24;67.34;99140.88;5073997;28;19919;-76
2023/11/15 00:45:14;;;;;;;;;;;;;;;10.20;67.34;99127.25;5073998;28;20001;-77
2023/11/15 00:47:39;;;;;;;;;;;;;;;10.16;67.74;99116.22;5073691;28;19960;-76
2023/11/15 00:50:06;;;;;;;;;;;;;;;10.20;67.02;99121.97;5073618;28;19913;-77
2023/11/15 00:52:31;;;;;;;;;;;;;;;10.22;67.04;99130.53;5073800;28;19956;-77
2023/11/15 00:54:56;;;;;;;;;;;;;;;10.23;67.24;99132.16;5073811;28;19954;-77
2023/11/15 00:57:23;;;;;;;;;;;;;;;10.23;67.37;99128.69;5073398;28;19916;-77
2023/11/15 00:59:53;;;;;;;;;;;;;;;10.24;66.85;99127.69;5073481;28;19920;-76
2023/11/15 01:02:18;;;;;;;;;;;;;;;10.25;67.08;99124.06;5073370;28;19919;-76
2023/11/15 01:04:46;;;;;;;;;;;;;;;10.29;67.18;99118.22;5070963;28;19920;-77
2023/11/15 01:07:12;;;;;;;;;;;;;;;10.30;66.82;99119.03;5073129;28;19970;-76
2023/11/15 01:09:37;;;;;;;;;;;;;;;10.25;67.56;99116.13;5073114;28;19916;-77
2023/11/15 01:12:04;;;;;;;;;;;;;;;10.27;67.63;99120.22;5073081;28;19942;-77
2023/11/15 01:14:30;;;;;;;;;;;;;;;10.31;67.16;99124.13;5055078;28;19919;-77
2023/11/15 01:16:55;;;;;;;;;;;;;;;10.36;66.99;99118.28;5072937;28;19912;-77
2023/11/15 01:19:20;;;;;;;;;;;;;;;10.38;67.22;99116.28;5073192;28;20309;-77
2023/11/15 01:21:46;;;;;;;;;;;;;;;10.38;67.33;99113.63;5072829;28;19912;-76
2023/11/15 01:24:11;;;;;;;;;;;;;;;10.38;67.07;99103.09;5073022;28;19963;-77
2023/11/15 01:26:36;;;;;;;;;;;;;;;10.39;67.06;99104.72;5072958;28;19916;-76
2023/11/15 01:29:02;;;;;;;;;;;;;;;10.38;66.69;99106.53;5072229;28;19920;-77
2023/11/15 01:31:27;;;;;;;;;;;;;;;10.38;66.52;99119.72;5072686;28;19917;-76
2023/11/15 01:33:53;;;;;;;;;;;;;;;10.36;67.52;99124.38;5071450;28;19912;-77
2023/11/15 01:36:18;;;;;;;;;;;;;;;10.35;67.12;99117.47;5072731;28;19953;-77
2023/11/15 01:38:44;;;;;;;;;;;;;;;10.32;67.03;99107.28;5072613;28;19946;-77
2023/11/15 01:41:09;;;;;;;;;;;;;;;10.29;66.93;99097.09;5072379;28;19919;-76
2023/11/15 01:43:34;;;;;;;;;;;;;;;10.30;66.76;99090.00;5071166;28;19920;-77
2023/11/15 01:46:03;;;;;;;;;;;;;;;10.31;66.49;99091.66;5072625;28;19988;-77
2023/11/15 01:48:30;;;;;;;;;;;;;;;10.32;67.10;99090.63;5072626;28;20393;-77
2023/11/15 01:50:56;;;;;;;;;;;;;;;10.31;67.02;99089.00;5072413;28;20313;-76
2023/11/15 01:53:22;;;;;;;;;;;;;;;10.31;66.61;99091.66;5054496;28;19920;-77
2023/11/15 01:55:48;;;;;;;;;;;;;;;10.32;67.34;99088.00;5072448;28;19955;-77
2023/11/15 01:58:14;;;;;;;;;;;;;;;10.30;67.24;99082.09;5072319;28;19923;-76
2023/11/15 02:00:40;;;;;;;;;;;;;;;10.23;67.07;99084.66;5072451;28;19921;-77
2023/11/15 02:03:05;;;;;;;;;;;;;;;10.18;67.17;99074.63;5051199;28;20390;-76
2023/11/15 02:05:30;;;;;;;;;;;;;;;10.12;67.75;99064.03;5052314;28;20002;-76
2023/11/15 02:07:56;;;;;;;;;;;;;;;10.08;67.86;99054.84;5052226;28;19999;-76
2023/11/15 02:10:22;;;;;;;;;;;;;;;10.06;68.09;99048.94;5052261;28;20385;-76
2023/11/15 02:12:47;;;;;;;;;;;;;;;10.08;68.11;99057.47;5052320;28;20971;-77
2023/11/15 02:15:15;;;;;;;;;;;;;;;10.13;67.87;99058.56;5052291;28;19911;-76
2023/11/15 02:17:48;;;;;;;;;;;;;;;10.18;67.54;99061.44;5052283;28;19952;-77
2023/11/15 02:20:14;;;;;;;;;;;;;;;10.16;68.16;99081.09;5052199;28;19967;-77
2023/11/15 02:22:44;;;;;;;;;;;;;;;10.20;67.55;99082.41;5052147;28;19913;-76
2023/11/15 02:25:09;;;;;;;;;;;;;;;10.24;67.37;99088.94;5051962;28;19944;-77
2023/11/15 02:27:35;;;;;;;;;;;;;;;10.26;66.88;99086.94;5051919;28;19936;-76
2023/11/15 02:30:00;;;;;;;;;;;;;;;10.27;67.44;99077.19;5051915;28;19917;-77
2023/11/15 02:32:25;;;;;;;;;;;;;;;10.24;68.17;99059.09;5051772;28;19917;-77
2023/11/15 02:34:51;;;;;;;;;;;;;;;10.18;68.41;99061.44;5051891;28;20316;-77
2023/11/15 02:37:16;;;;;;;;;;;;;;;10.15;68.25;99067.09;5051885;28;19920;-77
2023/11/15 02:39:41;;;;;;;;;;;;;;;10.12;69.17;99064.84;5051755;28;19913;-76
2023/11/15 02:42:07;;;;;;;;;;;;;;;10.15;68.51;99085.56;5051537;28;19948;-76
2023/11/15 02:44:34;;;;;;;;;;;;;;;10.13;67.71;99076.19;5051727;28;20309;-76
2023/11/15 02:47:00;;;;;;;;;;;;;;;10.11;67.50;99080.84;5051661;28;19913;-77
2023/11/15 02:49:26;;;;;;;;;;;;;;;10.06;67.58;99083.22;5051674;28;19913;-76
2023/11/15 02:51:51;;;;;;;;;;;;;;;10.05;67.54;99076.31;5051617;28;19919;-77
2023/11/15 02:54:16;;;;;;;;;;;;;;;10.03;67.03;99078.31;5050158;28;19980;-77
2023/11/15 02:56:41;;;;;;;;;;;;;;;9.96;67.46;99082.69;5051495;28;19912;-78
2023/11/15 02:59:07;;;;;;;;;;;;;;;9.90;67.56;99091.34;5050158;28;19916;-77
2023/11/15 03:01:32;;;;;;;;;;;;;;;9.81;67.46;99096.72;5051398;28;19919;-77
2023/11/15 03:03:57;;;;;;;;;;;;;;;9.77;67.37;99110.47;5064017;28;19927;-77
2023/11/15 03:06:23;;;;;;;;;;;;;;;9.72;67.94;99105.75;5053451;28;19912;-78
2023/11/15 03:08:48;;;;;;;;;;;;;;;9.59;67.68;99117.91;5071506;28;19982;-76
2023/11/15 03:11:13;;;;;;;;;;;;;;;9.51;67.81;99121.44;5071385;28;19999;-77
2023/11/15 03:13:38;;;;;;;;;;;;;;;9.49;67.74;99123.44;5070165;28;20286;-76
2023/11/15 03:16:04;;;;;;;;;;;;;;;9.43;68.24;99124.97;5071488;28;19962;-77
2023/11/15 03:18:29;;;;;;;;;;;;;;;9.41;68.61;99116.44;5071401;28;19916;-76
2023/11/15 03:20:54;;;;;;;;;;;;;;;9.40;69.08;99127.97;5071420;28;19913;-76
2023/11/15 03:23:20;;;;;;;;;;;;;;;9.44;68.39;99139.78;5053511;28;20000;-76
2023/11/15 03:25:45;;;;;;;;;;;;;;;9.46;68.47;99153.59;5071332;28;20015;-77
2023/11/15 03:28:10;;;;;;;;;;;;;;;9.50;68.85;99146.16;5071442;28;19912;-76
2023/11/15 03:30:36;;;;;;;;;;;;;;;9.48;68.93;99146.34;5071357;28;20415;-75
2023/11/15 03:33:01;;;;;;;;;;;;;;;9.53;69.64;99141.34;5071342;28;19956;-77
2023/11/15 03:35:26;;;;;;;;;;;;;;;9.56;68.89;99134.91;5071360;28;20301;-76
2023/11/15 03:37:52;;;;;;;;;;;;;;;9.55;69.19;99128.81;5069678;28;19943;-77
2023/11/15 03:40:19;;;;;;;;;;;;;;;9.51;69.70;99130.16;5071042;28;19913;-77
2023/11/15 03:42:44;;;;;;;;;;;;;;;9.51;69.68;99129.34;5053168;28;19912;-76
2023/11/15 03:45:10;;;;;;;;;;;;;;;9.59;69.40;99126.63;5071180;28;19996;-76
2023/11/15 03:47:35;;;;;;;;;;;;;;;9.68;68.96;99127.38;5071289;28;20309;-76
2023/11/15 03:50:01;;;;;;;;;;;;;;;9.75;69.63;99125.66;5053080;28;19944;-77
2023/11/15 03:52:26;;;;;;;;;;;;;;;9.82;69.13;99118.66;5073318;28;19934;-76
2023/11/15 03:54:52;;;;;;;;;;;;;;;9.88;68.58;99128.47;5073488;28;19970;-77
2023/11/15 03:57:17;;;;;;;;;;;;;;;9.92;69.46;99116.53;5074406;28;19917;-77
2023/11/15 03:59:43;;;;;;;;;;;;;;;9.91;68.99;99114.91;5056521;28;19912;-77
2023/11/15 04:02:08;;;;;;;;;;;;;;;9.94;68.63;99106.63;5074307;28;19919;-76
2023/11/15 04:04:33;;;;;;;;;;;;;;;9.98;68.50;99104.44;5074369;28;19928;-77
2023/11/15 04:06:59;;;;;;;;;;;;;;;9.99;68.70;99112.16;5074624;28;19917;-76
2023/11/15 04:09:26;;;;;;;;;;;;;;;9.99;68.39;99108.72;5073747;28;20226;-77
2023/11/15 04:11:52;;;;;;;;;;;;;;;9.97;68.96;99094.88;5074718;28;19916;-77
2023/11/15 04:14:17;;;;;;;;;;;;;;;9.91;68.93;99093.81;5074215;28;19912;-77
2023/11/15 04:16:43;;;;;;;;;;;;;;;9.88;69.05;99092.34;5074493;28;19967;-77
2023/11/15 04:19:09;;;;;;;;;;;;;;;9.87;68.85;99095.19;5074335;28;19968;-77
2023/11/15 04:21:34;;;;;;;;;;;;;;;9.85;69.18;99094.53;5074306;28;19951;-77
2023/11/15 04:23:59;;;;;;;;;;;;;;;9.81;69.51;99082.72;5074259;28;19912;-76
2023/11/15 04:26:25;;;;;;;;;;;;;;;9.78;69.51;99083.91;5074043;28;19916;-77
2023/11/15 04:28:50;;;;;;;;;;;;;;;9.79;69.09;99092.66;5074028;28;20301;-76
2023/11/15 04:31:16;;;;;;;;;;;;;;;9.80;69.17;99092.47;5074087;28;19913;-76
2023/11/15 04:33:41;;;;;;;;;;;;;;;9.85;68.64;99089.28;5074281;28;20351;-76
2023/11/15 04:36:07;;;;;;;;;;;;;;;9.87;68.58;99082.00;5074104;28;19919;-77
2023/11/15 04:38:33;;;;;;;;;;;;;;;9.88;68.36;99078.34;5073905;28;19916;-77
2023/11/15 04:40:59;;;;;;;;;;;;;;;9.88;68.41;99076.53;5074034;28;19969;-77
2023/11/15 04:43:25;;;;;;;;;;;;;;;9.87;68.56;99069.63;5072635;28;19913;-76
2023/11/15 04:45:50;;;;;;;;;;;;;;;9.85;69.00;99066.34;5055860;28;19916;-77
2023/11/15 04:48:16;;;;;;;;;;;;;;;9.81;69.07;99059.00;5073696;28;19978;-77
2023/11/15 04:50:41;;;;;;;;;;;;;;;9.78;68.82;99047.00;5073636;28;20359;-77
2023/11/15 04:53:08;;;;;;;;;;;;;;;9.76;68.78;99072.75;5073710;28;19908;-76
2023/11/15 04:55:34;;;;;;;;;;;;;;;9.77;68.25;99068.28;5073577;28;19912;-77
2023/11/15 04:57:59;;;;;;;;;;;;;;;9.79;68.49;99064.47;5074235;28;20333;-77
2023/11/15 05:00:24;;;;;;;;;;;;;;;9.80;68.83;99057.38;5073548;28;20443;-77
2023/11/15 05:02:49;;;;;;;;;;;;;;;9.75;68.65;99059.75;5072506;28;19924;-77
2023/11/15 05:05:15;;;;;;;;;;;;;;;9.73;68.67;99061.75;5055319;28;19924;-77
2023/11/15 05:07:40;;;;;;;;;;;;;;;9.74;68.60;99058.09;5071884;28;19912;-77
2023/11/15 05:10:06;;;;;;;;;;;;;;;9.76;68.27;99045.56;5055360;28;20007;-77
2023/11/15 05:12:31;;;;;;;;;;;;;;;9.76;69.00;99050.84;5055287;28;19912;-77
2023/11/15 05:14:57;;;;;;;;;;;;;;;9.77;68.51;99044.56;5073118;28;20417;-76
2023/11/15 05:17:22;;;;;;;;;;;;;;;9.79;68.01;99048.66;5055151;28;19916;-77
2023/11/15 05:19:47;;;;;;;;;;;;;;;9.80;67.72;99041.56;5073195;28;19916;-76
2023/11/15 05:22:13;;;;;;;;;;;;;;;9.79;67.64;99040.72;5073035;28;20400;-77
2023/11/15 05:24:39;;;;;;;;;;;;;;;9.73;67.68;99032.75;5072897;28;19995;-77
2023/11/15 05:27:04;;;;;;;;;;;;;;;9.68;68.42;99016.66;5072941;28;19913;-77
2023/11/15 05:29:30;;;;;;;;;;;;;;;9.67;67.81;99010.59;5071600;28;20389;-76
2023/11/15 05:31:55;;;;;;;;;;;;;;;9.69;67.68;98997.22;5072768;28;20312;-77
2023/11/15 05:34:20;;;;;;;;;;;;;;;9.67;68.35;98996.59;5072736;28;19919;-77
2023/11/15 05:36:46;;;;;;;;;;;;;;;9.66;68.27;99000.19;5072730;28;19904;-76
2023/11/15 05:39:11;;;;;;;;;;;;;;;9.68;68.13;99006.94;5054826;28;19924;-77
2023/11/15 05:41:36;;;;;;;;;;;;;;;9.73;67.40;99006.38;5072625;28;20376;-77
2023/11/15 05:44:02;;;;;;;;;;;;;;;9.75;67.79;99002.56;5054514;28;19947;-76
2023/11/15 05:46:27;;;;;;;;;;;;;;;9.80;67.75;98999.38;5072664;28;19913;-77
2023/11/15 05:48:53;;;;;;;;;;;;;;;9.83;68.50;98993.72;5072507;28;19917;-76
2023/11/15 05:51:18;;;;;;;;;;;;;;;9.86;68.41;98993.34;5054590;28;20387;-77
2023/11/15 05:53:45;;;;;;;;;;;;;;;9.83;68.15;98991.09;5071214;28;20002;-76
2023/11/15 05:56:10;;;;;;;;;;;;;;;9.82;68.80;98981.53;5072253;28;19913;-76
2023/11/15 05:58:35;;;;;;;;;;;;;;;9.80;69.26;98973.81;5072163;28;19970;-76
2023/11/15 06:01:01;;;;;;;;;;;;;;;9.82;68.61;98973.63;5072409;28;19917;-77
2023/11/15 06:03:26;;;;;;;;;;;;;;;9.87;68.85;98976.53;5050868;28;20416;-77
2023/11/15 06:05:51;;;;;;;;;;;;;;;9.94;68.43;98974.78;5052218;28;19917;-77
2023/11/15 06:08:17;;;;;;;;;;;;;;;10.01;67.87;98980.94;5052247;28;20003;-77
2023/11/15 06:10:43;;;;;;;;;;;;;;;10.04;67.78;98975.28;5052034;28;20403;-76
2023/11/15 06:13:08;;;;;;;;;;;;;;;10.07;68.13;98972.25;5051943;28;20408;-76
2023/11/15 06:15:33;;;;;;;;;;;;;;;10.08;68.13;98968.63;5051704;28;19999;-77
2023/11/15 06:17:59;;;;;;;;;;;;;;;10.10;68.41;98953.41;5051945;28;19917;-76
2023/11/15 06:20:24;;;;;;;;;;;;;;;10.10;68.09;98947.31;5051815;28;19974;-77
2023/11/15 06:22:50;;;;;;;;;;;;;;;10.16;68.23;98944.75;5051463;28;19989;-77
2023/11/15 06:25:18;;;;;;;;;;;;;;;10.25;67.67;98949.91;5051987;28;19912;-76
2023/11/15 06:27:44;;;;;;;;;;;;;;;10.29;67.18;98933.53;5050614;28;20366;-76
2023/11/15 06:30:10;;;;;;;;;;;;;;;10.34;67.94;98932.94;5051808;28;19952;-75
2023/11/15 06:32:35;;;;;;;;;;;;;;;10.36;67.40;98923.81;5051822;28;19909;-77
2023/11/15 06:35:00;;;;;;;;;;;;;;;10.43;67.66;98931.81;5033865;28;19971;-77
2023/11/15 06:37:26;;;;;;;;;;;;;;;10.50;67.87;98944.06;5050397;28;19917;-77
2023/11/15 06:39:52;;;;;;;;;;;;;;;10.54;67.35;98941.03;5033871;28;19923;-76
2023/11/15 06:42:21;;;;;;;;;;;;;;;10.57;66.98;98930.91;5051940;28;20345;-76
2023/11/15 06:44:46;;;;;;;;;;;;;;;10.63;67.41;98926.69;5051560;28;19996;-76
2023/11/15 06:47:12;;;;;;;;;;;;;;;10.68;68.05;98927.72;5051942;28;20420;-77
2023/11/15 06:49:38;;;;;;;;;;;;;;;10.71;67.14;98906.22;5051546;28;19917;-76
2023/11/15 06:52:05;;;;;;;;;;;;;;;10.78;67.04;98911.53;5051641;28;20050;-77
2023/11/15 06:54:31;;;;;;;;;;;;;;;10.82;67.32;98921.53;5051394;28;19913;-77
2023/11/15 06:56:56;;;;;;;;;;;;;;;10.86;67.42;98926.41;5051545;28;20054;-76
2023/11/15 06:59:22;;;;;;;;;;;;;;;10.91;67.73;98914.25;5051451;28;19923;-77
2023/11/15 07:01:51;;;;;;;;;;;;;;;10.97;67.41;98925.84;5051195;28;20000;-77
2023/11/15 07:04:16;;;;;;;;;;;;;;;11.02;67.72;98923.44;5066491;28;19920;-77
2023/11/15 07:06:48;;;;;;;;;;;;;;;11.05;67.36;98923.06;5071528;28;19916;-77
2023/11/15 07:09:20;;;;;;;;;;;;;;;11.09;67.31;98916.38;5071515;28;19919;-76
2023/11/15 07:11:46;;;;;;;;;;;;;;;11.15;66.79;98928.81;5071561;28;19912;-75
2023/11/15 07:14:14;;;;;;;;;;;;;;;11.20;67.50;98929.03;5071462;28;19911;-76
2023/11/15 07:16:45;;;;;;;;;;;;;;;11.27;66.85;98937.00;5071342;28;19913;-76
2023/11/15 07:19:10;;;;;;;;;;;;;;;11.34;67.48;98929.91;5071395;28;19999;-76
2023/11/15 07:21:35;;;;;;;;;;;;;;;11.38;67.48;98920.56;5071181;28;19951;-78
2023/11/15 07:24:00;;;;;;;;;;;;;;;11.44;67.19;98925.88;5071123;28;20450;-76
2023/11/15 07:26:26;;;;;;;;;;;;;;;11.54;66.98;98914.13;5071604;28;19916;-77
2023/11/15 07:28:55;;;;;;;;;;;;;;;11.61;67.67;98905.19;5082422;28;19926;-76
2023/11/15 07:31:22;;;;;;;;;;;;;;;11.70;67.15;98900.53;5074985;28;20397;-76
2023/11/15 07:33:47;;;;;;;;;;;;;;;11.80;66.56;98895.69;5079018;28;19916;-77
2023/11/15 07:36:12;;;;;;;;;;;;;;;11.90;67.06;98893.50;5086487;28;20385;-76
2023/11/15 07:38:38;;;;;;;;;;;;;;;12.01;66.06;98887.59;5076136;28;19929;-75
2023/11/15 07:41:04;;;;;;;;;;;;;;;12.12;66.66;98886.16;5073820;28;19916;-77
2023/11/15 07:43:29;;;;;;;;;;;;;;;12.23;65.35;98879.44;5088302;28;20019;-76
2023/11/15 07:45:54;;;;;;;;;;;;;;;12.34;66.60;98876.19;5087056;28;19923;-75
2023/11/15 07:48:20;;;;;;;;;;;;;;;12.44;65.67;98879.22;5075297;28;19917;-77
2023/11/15 07:50:46;;;;;;;;;;;;;;;12.54;66.44;98869.00;5074738;28;19959;-76
2023/11/15 07:53:12;;;;;;;;;;;;;;;12.64;66.66;98864.13;5073440;28;19912;-77
2023/11/15 07:55:37;;;;;;;;;;;;;;;12.73;66.45;98862.88;5074186;28;19916;-75
2023/11/15 07:58:03;;;;;;;;;;;;;;;12.85;66.29;98864.88;5083006;28;19920;-76
2023/11/15 08:00:28;;;;;;;;;;;;;;;12.96;65.06;98864.22;5084079;28;19923;-75
2023/11/15 08:02:54;;;;;;;;;;;;;;;13.04;65.11;98870.09;5074490;28;19925;-76
2023/11/15 08:05:20;;;;;;;;;;;;;;;13.16;65.98;98861.50;5075876;28;19920;-77
2023/11/15 08:07:47;;;;;;;;;;;;;;;13.25;66.01;98858.41;5094861;28;19919;-76
2023/11/15 08:10:14;;;;;;;;;;;;;;;13.34;65.46;98861.63;5066678;28;19913;-76
2023/11/15 08:12:39;;;;;;;;;;;;;;;13.43;65.85;98862.22;5076064;28;19916;-76
2023/11/15 08:15:05;;;;;;;;;;;;;;;13.48;66.35;98876.47;5085854;28;20312;-76
2023/11/15 08:17:31;;;;;;;;;;;;;;;13.55;66.80;98881.75;5082508;28;20412;-76
2023/11/15 08:19:56;;;;;;;;;;;;;;;13.62;67.05;98869.25;5085578;28;19916;-75
2023/11/15 08:22:22;;;;;;;;;;;;;;;13.70;65.46;98854.91;5085097;28;20422;-75
2023/11/15 08:24:48;;;;;;;;;;;;;;;13.83;64.26;98857.47;5082557;28;19974;-76
2023/11/15 08:27:14;;;;;;;;;;;;;;;13.88;66.51;98845.19;5074395;28;19992;-77
2023/11/15 08:29:39;;;;;;;;;;;;;;;13.93;66.20;98849.84;5056076;28;19947;-77
2023/11/15 08:32:06;;;;;;;;;;;;;;;13.97;66.27;98849.19;5077475;28;19916;-76
2023/11/15 08:34:31;;;;;;;;;;;;;;;14.00;67.34;98859.38;5083257;28;19918;-77
2023/11/15 08:36:58;;;;;;;;;;;;;;;14.06;67.58;98867.50;5056326;28;20274;-77
2023/11/15 08:39:23;;;;;;;;;;;;;;;14.10;67.93;98861.53;5068507;28;20011;-76
2023/11/15 08:41:49;;;;;;;;;;;;;;;14.16;67.44;98852.72;5093728;28;19912;-77
2023/11/15 08:44:15;;;;;;;;;;;;;;;14.24;67.65;98854.28;5071947;28;20381;-76
2023/11/15 08:46:41;;;;;;;;;;;;;;;14.30;68.49;98846.28;5093440;28;19963;-76
2023/11/15 08:49:06;;;;;;;;;;;;;;;14.38;68.41;98839.84;5075704;28;19917;-76
2023/11/15 08:51:32;;;;;;;;;;;;;;;14.47;68.26;98832.44;5077392;28;19931;-77
2023/11/15 08:53:57;;;;;;;;;;;;;;;14.54;68.49;98823.38;5093364;28;19959;-77
2023/11/15 08:56:22;;;;;;;;;;;;;;;14.62;68.97;98820.41;5092248;28;19920;-76
2023/11/15 08:58:48;;;;;;;;;;;;;;;14.74;66.97;98817.03;5079811;28;19920;-77
2023/11/15 09:01:13;;;;;;;;;;;;;;;14.85;67.16;98818.94;5080502;28;20328;-77
2023/11/15 09:03:40;;;;;;;;;;;;;;;14.96;67.23;98820.88;5063942;28;19960;-76
2023/11/15 09:06:06;;;;;;;;;;;;;;;15.13;68.40;98813.09;5080747;28;20393;-78
2023/11/15 09:08:31;;;;;;;;;;;;;;;15.29;67.05;98808.97;5081919;28;19920;-77
2023/11/15 09:10:57;;;;;;;;;;;;;;;15.43;66.80;98795.25;5080977;28;19909;-77
2023/11/15 09:13:23;;;;;;;;;;;;;;;15.58;66.19;98808.97;5072862;28;19952;-77
2023/11/15 09:15:52;;;;;;;;;;;;;;;15.70;66.31;98806.38;5054917;28;20003;-77
2023/11/15 09:18:21;;;;;;;;;;;;;;;15.80;66.07;98800.47;5072749;28;19920;-76
2023/11/15 09:20:49;;;;;;;;;;;;;;;15.92;65.56;98795.97;5071470;28;19919;-77
2023/11/15 09:23:16;;;;;;;;;;;;;;;16.03;64.31;98797.81;5076668;28;20313;-76
2023/11/15 09:25:41;;;;;;;;;;;;;;;16.13;64.66;98786.59;5073696;28;20405;-77
2023/11/15 09:28:07;;;;;;;;;;;;;;;16.25;64.23;98784.72;5065157;28;19916;-76
2023/11/15 09:30:32;;;;;;;;;;;;;;;16.39;62.25;98780.00;5088491;28;19963;-78
2023/11/15 09:32:58;;;;;;;;;;;;;;;16.52;62.02;98791.22;5070667;28;20393;-76
2023/11/15 09:35:27;;;;;;;;;;;;;;;16.64;63.01;98791.19;5055995;28;20017;-77
2023/11/15 09:37:53;;;;;;;;;;;;;;;16.73;62.25;98789.00;5073269;28;19924;-77
2023/11/15 09:40:19;;;;;;;;;;;;;;;16.79;62.22;98774.72;5089283;28;19986;-76
2023/11/15 09:42:49;;;;;;;;;;;;;;;16.83;62.03;98786.53;5074889;28;19916;-77
2023/11/15 09:45:17;;;;;;;;;;;;;;;16.89;62.25;98782.91;5072245;28;19951;-77
2023/11/15 09:47:47;;;;;;;;;;;;;;;16.98;61.60;98776.16;5071255;28;20031;-79
2023/11/15 09:50:15;;;;;;;;;;;;;;;17.05;61.65;98779.50;5084401;28;19916;-77
2023/11/15 09:52:40;;;;;;;;;;;;;;;17.12;61.32;98774.84;5058030;28;20312;-76
2023/11/15 09:55:07;;;;;;;;;;;;;;;17.17;61.44;98774.13;5052839;28;19923;-77
2023/11/15 09:57:33;;;;;;;;;;;;;;;17.23;61.00;98767.84;5071823;28;19985;-77
2023/11/15 09:59:58;;;;;;;;;;;;;;;17.30;60.88;98767.69;5068746;28;19916;-76
2023/11/15 10:02:28;;;;;;;;;;;;;;;17.35;60.74;98759.78;5082946;28;20383;-77
2023/11/15 10:05:18;;;;;;;;;;;;;;;17.35;60.55;98751.75;5071977;28;19926;-76
2023/11/15 10:07:44;;;;;;;;;;;;;;;17.29;61.10;98753.53;5072006;28;19912;-77
2023/11/15 10:10:20;;;;;;;;;;;;;;;17.29;60.93;98748.19;5054015;28;19912;-76
2023/11/15 10:12:49;;;;;;;;;;;;;;;17.30;60.58;98741.00;5072151;28;19912;-78
2023/11/15 10:15:18;;;;;;;;;;;;;;;17.34;60.98;98752.81;5054113;28;19913;-78
2023/11/15 10:17:43;;;;;;;;;;;;;;;17.37;60.70;98747.81;5071842;28;20003;-78
2023/11/15 10:20:19;;;;;;;;;;;;;;;17.41;60.43;98745.47;5071956;28;19948;-77
2023/11/15 10:22:45;;;;;;;;;;;;;;;17.43;60.40;98744.16;5071888;28;19971;-77
2023/11/15 10:25:13;;;;;;;;;;;;;;;17.47;60.36;98731.16;5071701;28;19912;-77
2023/11/15 10:27:39;;;;;;;;;;;;;;;17.51;59.96;98723.47;5053523;28;19913;-78
2023/11/15 10:30:20;;;;;;;;;;;;;;;17.54;60.17;98728.31;5071485;28;19923;-78
2023/11/15 10:32:45;;;;;;;;;;;;;;;17.55;59.84;98727.28;5072514;28;19916;-78
2023/11/15 10:35:22;;;;;;;;;;;;;;;17.55;59.68;98735.28;5071698;28;19923;-77
2023/11/15 10:37:52;;;;;;;;;;;;;;;17.53;59.47;98735.53;5071608;28;20007;-77
2023/11/15 10:40:21;;;;;;;;;;;;;;;17.55;59.29;98732.59;5079753;28;19919;-77
2023/11/15 10:42:48;;;;;;;;;;;;;;;17.55;59.18;98725.41;5081848;28;20474;-76
2023/11/15 10:45:15;;;;;;;;;;;;;;;17.52;58.72;98722.41;5091533;28;19912;-78
2023/11/15 10:47:44;;;;;;;;;;;;;;;17.51;58.86;98721.59;5073821;28;20361;-77
2023/11/15 10:50:15;;;;;;;;;;;;;;;17.52;58.92;98720.56;5073639;28;19912;-78
2023/11/15 10:52:42;;;;;;;;;;;;;;;17.52;58.57;98720.56;5091598;28;19912;-77
2023/11/15 10:55:08;;;;;;;;;;;;;;;17.57;58.90;98725.16;5091487;28;19912;-78
2023/11/15 10:57:36;;;;;;;;;;;;;;;17.61;58.52;98721.75;5089981;28;19920;-76
2023/11/15 11:00:05;;;;;;;;;;;;;;;17.68;58.49;98722.44;5091787;28;19912;-78
2023/11/15 11:02:32;;;;;;;;;;;;;;;17.75;58.29;98723.06;5074439;28;19960;-77
2023/11/15 11:04:59;;;;;;;;;;;;;;;17.81;57.30;98720.47;5076882;28;19934;-78
2023/11/15 11:07:24;;;;;;;;;;;;;;;17.87;57.44;98728.34;5079912;28;19919;-77
2023/11/15 11:09:57;;;;;;;;;;;;;;;17.93;57.43;98724.69;5091963;28;19916;-75
2023/11/15 11:12:23;;;;;;;;;;;;;;;17.98;57.88;98737.31;5077612;28;19912;-78
2023/11/15 11:15:12;;;;;;;;;;;;;;;18.00;57.81;98733.34;5074249;28;19955;-77
2023/11/15 11:17:39;;;;;;;;;;;;;;;18.00;57.69;98724.53;5065864;28;19942;-77
2023/11/15 11:20:22;;;;;;;;;;;;;;;17.96;57.25;98726.88;5075283;28;19912;-78
2023/11/15 11:23:07;;;;;;;;;;;;;;;17.94;57.34;98725.50;5056983;28;20015;-76
2023/11/15 11:25:34;;;;;;;;;;;;;;;17.99;57.09;98725.59;5074983;28;19977;-77
2023/11/15 11:28:01;;;;;;;;;;;;;;;18.03;56.91;98719.50;5075979;28;19998;-77
2023/11/15 11:30:27;;;;;;;;;;;;;;;18.06;57.42;98719.00;5086116;28;19912;-77
2023/11/15 11:33:13;;;;;;;;;;;;;;;18.09;56.64;98715.03;5062536;28;19916;-77
2023/11/15 11:35:40;;;;;;;;;;;;;;;18.12;56.29;98722.56;5084420;28;20309;-75
2023/11/15 11:38:06;;;;;;;;;;;;;;;18.16;56.72;98722.88;5057244;28;19999;-76
2023/11/15 11:40:32;;;;;;;;;;;;;;;18.18;56.59;98732.25;5075195;28;19951;-77
2023/11/15 11:43:15;;;;;;;;;;;;;;;18.17;56.09;98729.84;5073547;28;19970;-76
2023/11/15 11:45:41;;;;;;;;;;;;;;;18.16;54.23;98734.38;5074734;28;19919;-77
2023/11/15 11:48:14;;;;;;;;;;;;;;;18.14;55.61;98743.69;5074554;28;20290;-77
2023/11/15 11:50:49;;;;;;;;;;;;;;;18.04;52.84;98749.69;5074438;28;20419;-78
2023/11/15 11:53:15;;;;;;;;;;;;;;;17.92;52.45;98759.66;5074621;28;19948;-77
2023/11/15 11:55:41;;;;;;;;;;;;;;;17.87;54.61;98765.75;5075538;28;20385;-77
2023/11/15 11:58:06;;;;;;;;;;;;;;;17.78;53.77;98784.00;5074397;28;19916;-77
2023/11/15 12:00:31;;;;;;;;;;;;;;;17.69;54.88;98795.31;5074299;28;20333;-77
2023/11/15 12:02:57;;;;;;;;;;;;;;;17.55;53.75;98802.00;5074336;28;19967;-77
2023/11/15 12:05:24;;;;;;;;;;;;;;;17.40;52.21;98799.88;5073060;28;19912;-77
2023/11/15 12:07:50;;;;;;;;;;;;;;;17.29;52.67;98796.22;5075258;28;19923;-77
2023/11/15 12:10:16;;;;;;;;;;;;;;;17.17;53.74;98806.13;5081140;28;19916;-77
2023/11/15 12:12:52;;;;;;;;;;;;;;;17.13;51.12;98818.34;5075941;28;19970;-77
2023/11/15 12:15:18;;;;;;;;;;;;;;;17.14;52.63;98828.75;5094390;28;19912;-76
2023/11/15 12:17:45;;;;;;;;;;;;;;;17.18;53.62;98834.44;5092615;28;19920;-76
2023/11/15 12:20:12;;;;;;;;;;;;;;;17.19;52.56;98833.38;5094259;28;19912;-76
2023/11/15 12:22:40;;;;;;;;;;;;;;;17.24;53.25;98833.47;5094260;28;20412;-77
2023/11/15 12:25:08;;;;;;;;;;;;;;;17.26;53.85;98843.91;5057920;28;19920;-77
2023/11/15 12:27:34;;;;;;;;;;;;;;;17.26;53.59;98836.72;5074370;28;19913;-77
2023/11/15 12:30:00;;;;;;;;;;;;;;;17.25;52.60;98843.09;5055935;28;19919;-77
2023/11/15 12:32:26;;;;;;;;;;;;;;;17.25;53.18;98858.31;5074016;28;19942;-76
2023/11/15 12:34:51;;;;;;;;;;;;;;;17.20;51.43;98859.00;5074985;28;20412;-76
2023/11/15 12:37:16;;;;;;;;;;;;;;;17.18;51.96;98866.44;5073782;28;19912;-77
2023/11/15 12:39:41;;;;;;;;;;;;;;;17.22;54.50;98866.78;5072536;28;20319;-76
2023/11/15 12:42:07;;;;;;;;;;;;;;;17.23;52.75;98863.06;5072418;28;19913;-76
2023/11/15 12:44:45;;;;;;;;;;;;;;;17.26;54.18;98867.94;5074698;28;19923;-77
2023/11/15 12:47:11;;;;;;;;;;;;;;;17.26;52.93;98862.59;5073854;28;19916;-78